sensor_id;sensor_type;location;lat;lon;timestamp;temperature;humidity
12452;DHT22;6291;48.924;12.204;2023-06-14T00:03:36;15.20;99.90
12452;DHT22;6291;48.924;12.204;2023-06-14T00:08:42;15.10;99.90
12452;DHT22;6291;48.924;12.204;2023-06-14T00:13:45;14.90;99.90
12452;DHT22;6291;48.924;12.204;2023-06-14T00:18:49;14.90;99.90
12452;DHT22;6291;48.924;12.204;2023-06-14T00:23:55;14.50;99.90
12452;DHT22;6291;48.924;12.204;2023-06-14T00:28:59;14.30;99.90
12452;DHT22;6291;48.924;12.204;2023-06-14T00:34:02;14.10;99.90
12452;DHT22;6291;48.924;12.204;2023-06-14T00:39:07;14.10;99.90
12452;DHT22;6291;48.924;12.204;2023-06-14T00:44:13;14.20;99.90
12452;DHT22;6291;48.924;12.204;2023-06-14T00:49:19;14.10;99.90
12452;DHT22;6291;48.924;12.204;2023-06-14T00:54:24;14.00;99.90
12452;DHT22;6291;48.924;12.204;2023-06-14T00:59:28;13.90;99.90
12452;DHT22;6291;48.924;12.204;2023-06-14T01:04:31;13.50;99.90
12452;DHT22;6291;48.924;12.204;2023-06-14T01:09:44;13.40;99.90
12452;DHT22;6291;48.924;12.204;2023-06-14T01:14:53;13.40;99.90
12452;DHT22;6291;48.924;12.204;2023-06-14T01:19:57;13.50;99.90
12452;DHT22;6291;48.924;12.204;2023-06-14T01:25:03;13.50;99.90
12452;DHT22;6291;48.924;12.204;2023-06-14T01:30:08;13.20;99.90
12452;DHT22;6291;48.924;12.204;2023-06-14T01:35:14;13.30;99.90
12452;DHT22;6291;48.924;12.204;2023-06-14T01:40:19;13.30;99.90
12452;DHT22;6291;48.924;12.204;2023-06-14T01:45:24;10.20;99.90
12452;DHT22;6291;48.924;12.204;2023-06-14T01:50:31;12.90;99.90
12452;DHT22;6291;48.924;12.204;2023-06-14T01:55:36;12.90;99.90
12452;DHT22;6291;48.924;12.204;2023-06-14T02:00:43;13.00;99.90
12452;DHT22;6291;48.924;12.204;2023-06-14T02:05:47;13.10;99.90
12452;DHT22;6291;48.924;12.204;2023-06-14T02:10:51;13.00;99.90
12452;DHT22;6291;48.924;12.204;2023-06-14T02:15:56;12.90;99.90
12452;DHT22;6291;48.924;12.204;2023-06-14T02:20:59;12.90;99.90
12452;DHT22;6291;48.924;12.204;2023-06-14T02:26:04;12.90;99.90
12452;DHT22;6291;48.924;12.204;2023-06-14T02:31:09;8.70;99.90
12452;DHT22;6291;48.924;12.204;2023-06-14T02:36:12;12.30;99.90
12452;DHT22;6291;48.924;12.204;2023-06-14T02:41:17;12.30;99.90
12452;DHT22;6291;48.924;12.204;2023-06-14T02:46:20;12.40;99.90
12452;DHT22;6291;48.924;12.204;2023-06-14T02:51:24;12.20;99.90
12452;DHT22;6291;48.924;12.204;2023-06-14T02:56:29;12.40;99.90
12452;DHT22;6291;48.924;12.204;2023-06-14T03:01:32;12.30;99.90
12452;DHT22;6291;48.924;12.204;2023-06-14T03:06:41;12.30;99.90
12452;DHT22;6291;48.924;12.204;2023-06-14T03:11:49;12.40;99.90
12452;DHT22;6291;48.924;12.204;2023-06-14T03:16:53;12.30;99.90
12452;DHT22;6291;48.924;12.204;2023-06-14T03:21:59;11.80;99.90
12452;DHT22;6291;48.924;12.204;2023-06-14T03:27:06;11.50;1.00
12452;DHT22;6291;48.924;12.204;2023-06-14T03:32:15;11.40;1.00
12452;DHT22;6291;48.924;12.204;2023-06-14T03:37:19;11.40;1.00
12452;DHT22;6291;48.924;12.204;2023-06-14T03:42:24;11.50;1.00
12452;DHT22;6291;48.924;12.204;2023-06-14T03:47:29;11.70;1.00
12452;DHT22;6291;48.924;12.204;2023-06-14T03:52:33;11.80;1.00
12452;DHT22;6291;48.924;12.204;2023-06-14T03:57:38;13.20;1.00
12452;DHT22;6291;48.924;12.204;2023-06-14T04:02:45;9.50;1.00
12452;DHT22;6291;48.924;12.204;2023-06-14T04:07:48;12.50;1.00
12452;DHT22;6291;48.924;12.204;2023-06-14T04:12:54;12.50;99.90
12452;DHT22;6291;48.924;12.204;2023-06-14T04:17:57;12.50;99.90
12452;DHT22;6291;48.924;12.204;2023-06-14T04:23:11;12.60;99.90
12452;DHT22;6291;48.924;12.204;2023-06-14T04:28:17;9.10;99.90
12452;DHT22;6291;48.924;12.204;2023-06-14T04:33:22;12.90;99.90
12452;DHT22;6291;48.924;12.204;2023-06-14T04:38:28;12.80;99.90
12452;DHT22;6291;48.924;12.204;2023-06-14T04:43:38;13.10;99.90
12452;DHT22;6291;48.924;12.204;2023-06-14T04:48:42;13.30;99.90
12452;DHT22;6291;48.924;12.204;2023-06-14T04:53:46;13.50;99.90
12452;DHT22;6291;48.924;12.204;2023-06-14T04:58:53;13.50;99.90
12452;DHT22;6291;48.924;12.204;2023-06-14T05:03:58;13.40;99.90
12452;DHT22;6291;48.924;12.204;2023-06-14T05:09:02;13.40;99.90
12452;DHT22;6291;48.924;12.204;2023-06-14T05:14:07;13.80;99.90
12452;DHT22;6291;48.924;12.204;2023-06-14T05:19:10;14.00;99.90
12452;DHT22;6291;48.924;12.204;2023-06-14T05:24:14;13.90;99.90
12452;DHT22;6291;48.924;12.204;2023-06-14T05:29:20;13.90;99.90
12452;DHT22;6291;48.924;12.204;2023-06-14T05:34:23;14.50;99.90
12452;DHT22;6291;48.924;12.204;2023-06-14T05:39:27;14.40;99.90
12452;DHT22;6291;48.924;12.204;2023-06-14T05:44:31;15.00;99.90
12452;DHT22;6291;48.924;12.204;2023-06-14T05:49:34;15.70;99.90
12452;DHT22;6291;48.924;12.204;2023-06-14T05:54:38;16.80;99.90
12452;DHT22;6291;48.924;12.204;2023-06-14T05:59:43;17.90;99.90
12452;DHT22;6291;48.924;12.204;2023-06-14T06:04:46;18.40;99.90
12452;DHT22;6291;48.924;12.204;2023-06-14T06:09:49;19.30;99.90
12452;DHT22;6291;48.924;12.204;2023-06-14T06:14:54;18.90;99.90
12452;DHT22;6291;48.924;12.204;2023-06-14T06:19:57;19.00;99.90
12452;DHT22;6291;48.924;12.204;2023-06-14T06:25:01;19.30;99.90
12452;DHT22;6291;48.924;12.204;2023-06-14T06:30:07;20.00;99.90
12452;DHT22;6291;48.924;12.204;2023-06-14T06:35:10;21.00;99.90
12452;DHT22;6291;48.924;12.204;2023-06-14T06:40:15;21.70;99.90
12452;DHT22;6291;48.924;12.204;2023-06-14T06:45:19;21.90;99.90
12452;DHT22;6291;48.924;12.204;2023-06-14T06:50:26;22.50;99.90
12452;DHT22;6291;48.924;12.204;2023-06-14T06:55:30;22.50;99.90
12452;DHT22;6291;48.924;12.204;2023-06-14T07:00:35;22.30;99.90
12452;DHT22;6291;48.924;12.204;2023-06-14T07:05:38;22.10;99.90
12452;DHT22;6291;48.924;12.204;2023-06-14T07:10:41;22.20;99.90
12452;DHT22;6291;48.924;12.204;2023-06-14T07:15:46;23.00;99.90
12452;DHT22;6291;48.924;12.204;2023-06-14T07:20:49;23.30;99.90
12452;DHT22;6291;48.924;12.204;2023-06-14T07:25:54;23.30;99.90
12452;DHT22;6291;48.924;12.204;2023-06-14T07:30:58;22.30;99.90
12452;DHT22;6291;48.924;12.204;2023-06-14T07:36:02;21.20;99.90
12452;DHT22;6291;48.924;12.204;2023-06-14T07:41:05;21.10;99.90
12452;DHT22;6291;48.924;12.204;2023-06-14T07:46:10;21.00;99.90
12452;DHT22;6291;48.924;12.204;2023-06-14T07:51:14;21.80;99.90
12452;DHT22;6291;48.924;12.204;2023-06-14T07:56:17;22.60;99.90
12452;DHT22;6291;48.924;12.204;2023-06-14T08:01:21;23.20;99.90
12452;DHT22;6291;48.924;12.204;2023-06-14T08:06:27;23.10;99.90
12452;DHT22;6291;48.924;12.204;2023-06-14T08:11:30;24.10;99.90
12452;DHT22;6291;48.924;12.204;2023-06-14T08:16:37;23.90;99.90
12452;DHT22;6291;48.924;12.204;2023-06-14T08:21:41;24.00;99.90
12452;DHT22;6291;48.924;12.204;2023-06-14T08:26:45;25.10;99.90
12452;DHT22;6291;48.924;12.204;2023-06-14T08:31:50;25.90;99.90
12452;DHT22;6291;48.924;12.204;2023-06-14T08:36:53;24.00;99.90
12452;DHT22;6291;48.924;12.204;2023-06-14T08:41:57;25.10;99.90
12452;DHT22;6291;48.924;12.204;2023-06-14T08:47:02;25.60;99.90
12452;DHT22;6291;48.924;12.204;2023-06-14T08:52:08;25.00;99.90
12452;DHT22;6291;48.924;12.204;2023-06-14T08:57:15;24.70;99.90
12452;DHT22;6291;48.924;12.204;2023-06-14T09:02:20;25.70;99.90
12452;DHT22;6291;48.924;12.204;2023-06-14T09:07:24;22.30;99.90
12452;DHT22;6291;48.924;12.204;2023-06-14T09:12:28;23.30;99.90
12452;DHT22;6291;48.924;12.204;2023-06-14T09:17:34;23.90;99.90
12452;DHT22;6291;48.924;12.204;2023-06-14T09:22:38;24.50;99.90
12452;DHT22;6291;48.924;12.204;2023-06-14T09:27:41;24.10;99.90
12452;DHT22;6291;48.924;12.204;2023-06-14T09:32:46;23.80;99.90
12452;DHT22;6291;48.924;12.204;2023-06-14T09:37:50;24.60;99.90
12452;DHT22;6291;48.924;12.204;2023-06-14T09:42:53;24.80;99.90
12452;DHT22;6291;48.924;12.204;2023-06-14T09:48:02;22.90;99.90
12452;DHT22;6291;48.924;12.204;2023-06-14T09:53:11;24.70;99.90
12452;DHT22;6291;48.924;12.204;2023-06-14T09:58:15;24.10;99.90
12452;DHT22;6291;48.924;12.204;2023-06-14T10:03:28;25.50;99.90
12452;DHT22;6291;48.924;12.204;2023-06-14T10:08:57;27.40;99.90
12452;DHT22;6291;48.924;12.204;2023-06-14T10:14:02;26.80;99.90
12452;DHT22;6291;48.924;12.204;2023-06-14T10:19:13;26.00;99.90
12452;DHT22;6291;48.924;12.204;2023-06-14T10:24:20;26.20;99.90
12452;DHT22;6291;48.924;12.204;2023-06-14T10:29:29;25.90;99.90
12452;DHT22;6291;48.924;12.204;2023-06-14T10:34:38;26.30;99.90
12452;DHT22;6291;48.924;12.204;2023-06-14T10:39:43;27.00;99.90
12452;DHT22;6291;48.924;12.204;2023-06-14T10:44:50;27.20;99.90
12452;DHT22;6291;48.924;12.204;2023-06-14T10:49:57;28.30;99.90
12452;DHT22;6291;48.924;12.204;2023-06-14T10:55:05;29.50;99.90
12452;DHT22;6291;48.924;12.204;2023-06-14T11:00:13;29.20;99.90
12452;DHT22;6291;48.924;12.204;2023-06-14T11:05:24;26.20;99.90
12452;DHT22;6291;48.924;12.204;2023-06-14T11:10:35;29.00;99.90
12452;DHT22;6291;48.924;12.204;2023-06-14T11:15:44;28.80;99.90
12452;DHT22;6291;48.924;12.204;2023-06-14T11:20:50;28.90;99.90
12452;DHT22;6291;48.924;12.204;2023-06-14T11:25:54;28.60;99.90
12452;DHT22;6291;48.924;12.204;2023-06-14T11:31:01;29.10;99.90
12452;DHT22;6291;48.924;12.204;2023-06-14T11:36:08;27.50;99.90
12452;DHT22;6291;48.924;12.204;2023-06-14T11:41:13;26.60;99.90
12452;DHT22;6291;48.924;12.204;2023-06-14T11:46:17;27.20;99.90
12452;DHT22;6291;48.924;12.204;2023-06-14T11:51:27;27.40;99.90
12452;DHT22;6291;48.924;12.204;2023-06-14T11:56:32;27.90;99.90
12452;DHT22;6291;48.924;12.204;2023-06-14T12:01:36;28.70;99.90
12452;DHT22;6291;48.924;12.204;2023-06-14T12:06:43;28.90;99.90
12452;DHT22;6291;48.924;12.204;2023-06-14T12:11:46;30.20;99.90
12452;DHT22;6291;48.924;12.204;2023-06-14T12:16:50;28.50;99.90
12452;DHT22;6291;48.924;12.204;2023-06-14T12:21:55;27.80;99.90
12452;DHT22;6291;48.924;12.204;2023-06-14T12:27:04;28.80;99.90
12452;DHT22;6291;48.924;12.204;2023-06-14T12:32:08;25.20;99.90
12452;DHT22;6291;48.924;12.204;2023-06-14T12:37:13;29.90;99.90
12452;DHT22;6291;48.924;12.204;2023-06-14T12:42:17;30.20;99.90
12452;DHT22;6291;48.924;12.204;2023-06-14T12:47:20;30.50;99.90
12452;DHT22;6291;48.924;12.204;2023-06-14T12:52:26;31.50;99.90
12452;DHT22;6291;48.924;12.204;2023-06-14T12:57:30;31.20;99.90
12452;DHT22;6291;48.924;12.204;2023-06-14T13:02:34;32.20;99.90
12452;DHT22;6291;48.924;12.204;2023-06-14T13:07:39;29.50;99.90
12452;DHT22;6291;48.924;12.204;2023-06-14T13:12:43;29.00;99.90
12452;DHT22;6291;48.924;12.204;2023-06-14T13:17:47;29.50;99.90
12452;DHT22;6291;48.924;12.204;2023-06-14T13:22:53;29.40;99.90
12452;DHT22;6291;48.924;12.204;2023-06-14T13:27:57;28.60;99.90
12452;DHT22;6291;48.924;12.204;2023-06-14T13:33:01;29.90;99.90
12452;DHT22;6291;48.924;12.204;2023-06-14T13:38:06;30.80;99.90
12452;DHT22;6291;48.924;12.204;2023-06-14T13:43:09;33.60;99.90
12452;DHT22;6291;48.924;12.204;2023-06-14T13:48:13;35.50;99.90
12452;DHT22;6291;48.924;12.204;2023-06-14T13:53:18;37.10;99.90
12452;DHT22;6291;48.924;12.204;2023-06-14T13:58:21;34.30;99.90
12452;DHT22;6291;48.924;12.204;2023-06-14T14:03:25;36.00;99.90
12452;DHT22;6291;48.924;12.204;2023-06-14T14:08:30;34.30;99.90
12452;DHT22;6291;48.924;12.204;2023-06-14T14:13:33;32.60;99.90
12452;DHT22;6291;48.924;12.204;2023-06-14T14:18:38;29.60;99.90
12452;DHT22;6291;48.924;12.204;2023-06-14T14:23:43;27.40;99.90
12452;DHT22;6291;48.924;12.204;2023-06-14T14:28:47;25.60;99.90
12452;DHT22;6291;48.924;12.204;2023-06-14T14:33:50;25.70;99.90
12452;DHT22;6291;48.924;12.204;2023-06-14T14:38:55;25.70;99.90
12452;DHT22;6291;48.924;12.204;2023-06-14T14:43:59;25.70;99.90
12452;DHT22;6291;48.924;12.204;2023-06-14T14:49:02;23.30;99.90
12452;DHT22;6291;48.924;12.204;2023-06-14T14:54:07;25.70;99.90
12452;DHT22;6291;48.924;12.204;2023-06-14T14:59:11;25.60;99.90
12452;DHT22;6291;48.924;12.204;2023-06-14T15:04:14;26.00;99.90
12452;DHT22;6291;48.924;12.204;2023-06-14T15:09:19;26.20;99.90
12452;DHT22;6291;48.924;12.204;2023-06-14T15:14:23;26.30;99.90
12452;DHT22;6291;48.924;12.204;2023-06-14T15:19:26;26.40;99.90
12452;DHT22;6291;48.924;12.204;2023-06-14T15:24:31;26.80;99.90
12452;DHT22;6291;48.924;12.204;2023-06-14T15:29:44;26.80;99.90
12452;DHT22;6291;48.924;12.204;2023-06-14T15:34:52;26.90;99.90
12452;DHT22;6291;48.924;12.204;2023-06-14T15:39:57;26.60;99.90
12452;DHT22;6291;48.924;12.204;2023-06-14T15:45:00;26.80;99.90
12452;DHT22;6291;48.924;12.204;2023-06-14T15:50:05;26.30;99.90
12452;DHT22;6291;48.924;12.204;2023-06-14T15:55:11;26.10;99.90
12452;DHT22;6291;48.924;12.204;2023-06-14T16:00:16;26.20;99.90
12452;DHT22;6291;48.924;12.204;2023-06-14T16:05:19;25.90;99.90
12452;DHT22;6291;48.924;12.204;2023-06-14T16:10:25;25.70;99.90
12452;DHT22;6291;48.924;12.204;2023-06-14T16:15:30;25.40;99.90
12452;DHT22;6291;48.924;12.204;2023-06-14T16:20:35;25.50;99.90
12452;DHT22;6291;48.924;12.204;2023-06-14T16:25:46;25.40;99.90
12452;DHT22;6291;48.924;12.204;2023-06-14T16:30:49;24.80;99.90
12452;DHT22;6291;48.924;12.204;2023-06-14T16:35:53;24.70;99.90
12452;DHT22;6291;48.924;12.204;2023-06-14T16:40:58;24.60;99.90
12452;DHT22;6291;48.924;12.204;2023-06-14T16:46:01;24.20;99.90
12452;DHT22;6291;48.924;12.204;2023-06-14T16:51:05;23.80;99.90
12452;DHT22;6291;48.924;12.204;2023-06-14T16:56:10;21.10;99.90
12452;DHT22;6291;48.924;12.204;2023-06-14T17:01:13;23.30;99.90
12452;DHT22;6291;48.924;12.204;2023-06-14T17:06:16;23.30;99.90
12452;DHT22;6291;48.924;12.204;2023-06-14T17:11:22;23.10;99.90
12452;DHT22;6291;48.924;12.204;2023-06-14T17:16:25;23.00;99.90
12452;DHT22;6291;48.924;12.204;2023-06-14T17:21:29;23.00;99.90
12452;DHT22;6291;48.924;12.204;2023-06-14T17:26:34;22.80;99.90
12452;DHT22;6291;48.924;12.204;2023-06-14T17:31:37;22.90;99.90
12452;DHT22;6291;48.924;12.204;2023-06-14T17:36:41;22.80;99.90
12452;DHT22;6291;48.924;12.204;2023-06-14T17:41:47;22.70;99.90
12452;DHT22;6291;48.924;12.204;2023-06-14T17:46:50;22.50;99.90
12452;DHT22;6291;48.924;12.204;2023-06-14T17:51:54;22.50;99.90
12452;DHT22;6291;48.924;12.204;2023-06-14T17:56:59;22.50;99.90
12452;DHT22;6291;48.924;12.204;2023-06-14T18:02:02;22.40;99.90
12452;DHT22;6291;48.924;12.204;2023-06-14T18:07:06;22.30;99.90
12452;DHT22;6291;48.924;12.204;2023-06-14T18:12:11;22.30;99.90
12452;DHT22;6291;48.924;12.204;2023-06-14T18:17:15;22.30;99.90
12452;DHT22;6291;48.924;12.204;2023-06-14T18:22:19;22.20;99.90
12452;DHT22;6291;48.924;12.204;2023-06-14T18:27:24;22.00;99.90
12452;DHT22;6291;48.924;12.204;2023-06-14T18:32:31;21.90;99.90
12452;DHT22;6291;48.924;12.204;2023-06-14T18:37:37;21.90;99.90
12452;DHT22;6291;48.924;12.204;2023-06-14T18:42:42;22.10;99.90
12452;DHT22;6291;48.924;12.204;2023-06-14T18:47:45;21.90;99.90
12452;DHT22;6291;48.924;12.204;2023-06-14T18:52:49;21.80;99.90
12452;DHT22;6291;48.924;12.204;2023-06-14T18:57:54;21.30;99.90
12452;DHT22;6291;48.924;12.204;2023-06-14T19:02:57;21.10;99.90
12452;DHT22;6291;48.924;12.204;2023-06-14T19:08:01;20.90;99.90
12452;DHT22;6291;48.924;12.204;2023-06-14T19:13:07;20.70;99.90
12452;DHT22;6291;48.924;12.204;2023-06-14T19:18:13;20.60;99.90
12452;DHT22;6291;48.924;12.204;2023-06-14T19:23:16;20.40;99.90
12452;DHT22;6291;48.924;12.204;2023-06-14T19:28:21;20.30;99.90
12452;DHT22;6291;48.924;12.204;2023-06-14T19:33:28;20.20;99.90
12452;DHT22;6291;48.924;12.204;2023-06-14T19:38:32;20.20;99.90
12452;DHT22;6291;48.924;12.204;2023-06-14T19:43:36;20.10;99.90
12452;DHT22;6291;48.924;12.204;2023-06-14T19:48:40;20.00;99.90
12452;DHT22;6291;48.924;12.204;2023-06-14T19:53:43;19.80;99.90
12452;DHT22;6291;48.924;12.204;2023-06-14T19:58:48;19.80;99.90
12452;DHT22;6291;48.924;12.204;2023-06-14T20:03:52;19.60;99.90
12452;DHT22;6291;48.924;12.204;2023-06-14T20:08:55;19.50;99.90
12452;DHT22;6291;48.924;12.204;2023-06-14T20:14:01;19.50;99.90
12452;DHT22;6291;48.924;12.204;2023-06-14T20:19:06;19.30;99.90
12452;DHT22;6291;48.924;12.204;2023-06-14T20:24:10;19.00;99.90
12452;DHT22;6291;48.924;12.204;2023-06-14T20:29:16;18.90;99.90
12452;DHT22;6291;48.924;12.204;2023-06-14T20:34:19;18.70;99.90
12452;DHT22;6291;48.924;12.204;2023-06-14T20:39:23;18.60;99.90
12452;DHT22;6291;48.924;12.204;2023-06-14T20:44:27;18.60;99.90
12452;DHT22;6291;48.924;12.204;2023-06-14T20:49:31;18.50;99.90
12452;DHT22;6291;48.924;12.204;2023-06-14T20:54:35;18.30;99.90
12452;DHT22;6291;48.924;12.204;2023-06-14T20:59:43;18.20;99.90
12452;DHT22;6291;48.924;12.204;2023-06-14T21:04:46;18.00;99.90
12452;DHT22;6291;48.924;12.204;2023-06-14T21:09:50;18.00;99.90
12452;DHT22;6291;48.924;12.204;2023-06-14T21:14:55;17.80;99.90
12452;DHT22;6291;48.924;12.204;2023-06-14T21:19:59;17.80;99.90
12452;DHT22;6291;48.924;12.204;2023-06-14T21:25:03;17.70;99.90
12452;DHT22;6291;48.924;12.204;2023-06-14T21:30:08;17.60;99.90
12452;DHT22;6291;48.924;12.204;2023-06-14T21:35:12;17.60;99.90
12452;DHT22;6291;48.924;12.204;2023-06-14T21:40:19;17.50;99.90
12452;DHT22;6291;48.924;12.204;2023-06-14T21:45:23;17.40;99.90
12452;DHT22;6291;48.924;12.204;2023-06-14T21:50:27;17.50;99.90
12452;DHT22;6291;48.924;12.204;2023-06-14T21:55:30;17.50;99.90
12452;DHT22;6291;48.924;12.204;2023-06-14T22:00:35;17.50;99.90
12452;DHT22;6291;48.924;12.204;2023-06-14T22:05:38;17.70;99.90
12452;DHT22;6291;48.924;12.204;2023-06-14T22:10:42;17.70;99.90
12452;DHT22;6291;48.924;12.204;2023-06-14T22:15:47;17.50;99.90
12452;DHT22;6291;48.924;12.204;2023-06-14T22:20:53;17.40;99.90
12452;DHT22;6291;48.924;12.204;2023-06-14T22:25:56;17.40;99.90
12452;DHT22;6291;48.924;12.204;2023-06-14T22:31:01;17.30;99.90
12452;DHT22;6291;48.924;12.204;2023-06-14T22:36:07;17.20;99.90
12452;DHT22;6291;48.924;12.204;2023-06-14T22:41:11;17.10;99.90
12452;DHT22;6291;48.924;12.204;2023-06-14T22:46:16;17.10;99.90
12452;DHT22;6291;48.924;12.204;2023-06-14T22:51:26;17.10;99.90
12452;DHT22;6291;48.924;12.204;2023-06-14T22:56:29;17.20;99.90
12452;DHT22;6291;48.924;12.204;2023-06-14T23:01:34;17.30;99.90
12452;DHT22;6291;48.924;12.204;2023-06-14T23:06:38;17.30;99.90
12452;DHT22;6291;48.924;12.204;2023-06-14T23:11:43;17.20;99.90
12452;DHT22;6291;48.924;12.204;2023-06-14T23:16:48;17.20;99.90
12452;DHT22;6291;48.924;12.204;2023-06-14T23:21:53;17.20;99.90
12452;DHT22;6291;48.924;12.204;2023-06-14T23:27:01;17.10;99.90
12452;DHT22;6291;48.924;12.204;2023-06-14T23:32:07;17.10;99.90
12452;DHT22;6291;48.924;12.204;2023-06-14T23:37:11;17.00;99.90
12452;DHT22;6291;48.924;12.204;2023-06-14T23:42:15;16.90;99.90
12452;DHT22;6291;48.924;12.204;2023-06-14T23:47:20;16.70;99.90
12452;DHT22;6291;48.924;12.204;2023-06-14T23:52:23;16.70;99.90
12452;DHT22;6291;48.924;12.204;2023-06-14T23:57:29;16.60;99.90
